Bloom, North Dakota
Current Conditions -  °F | °C
As of 10:56 PM on Wednesday 17 Dec 2014 (Local Time) from KJMS Reporting Station
Clear Clear  
Wind Chill: -5°   Ceiling: Unl
Heat Index:   Visibility: 10mi
Dew Point:   Wind: 5mph
Humidity: 88%   Direction: 150°SSE
Pressure: 30.23"   Gusts: NA
Location:  46.8494°N, 98.7424°W
Report Text: KJMS 180456Z AUTO 15004KT 10SM CLR M16/M17 A3023 RMK AO2 SLP275 I1000 T11561172
Loading
Personal Weather Stations






























Interactive Weather Map New forecast layout! Learn more

10-Day Weather Forecast

Advertisements
Track Severe Weather on mobile